sensor_id;sensor_type;location;lat;lon;timestamp;temperature;humidity
22629;DHT22;11481;53.694;9.910;2023-07-22T00:01:50;15.10;99.90
22629;DHT22;11481;53.694;9.910;2023-07-22T00:04:16;15.10;99.90
22629;DHT22;11481;53.694;9.910;2023-07-22T00:06:43;14.90;99.90
22629;DHT22;11481;53.694;9.910;2023-07-22T00:09:10;14.90;99.90
22629;DHT22;11481;53.694;9.910;2023-07-22T00:11:36;14.90;99.90
22629;DHT22;11481;53.694;9.910;2023-07-22T00:14:03;14.90;99.90
22629;DHT22;11481;53.694;9.910;2023-07-22T00:16:32;14.80;99.90
22629;DHT22;11481;53.694;9.910;2023-07-22T00:19:00;14.70;99.90
22629;DHT22;11481;53.694;9.910;2023-07-22T00:21:26;14.70;99.90
22629;DHT22;11481;53.694;9.910;2023-07-22T00:23:55;14.50;99.90
22629;DHT22;11481;53.694;9.910;2023-07-22T00:26:21;14.60;99.90
22629;DHT22;11481;53.694;9.910;2023-07-22T00:28:48;14.60;99.90
22629;DHT22;11481;53.694;9.910;2023-07-22T00:31:15;14.70;99.90
22629;DHT22;11481;53.694;9.910;2023-07-22T00:33:41;14.70;99.90
22629;DHT22;11481;53.694;9.910;2023-07-22T00:36:08;14.80;99.90
22629;DHT22;11481;53.694;9.910;2023-07-22T00:38:35;14.80;99.90
22629;DHT22;11481;53.694;9.910;2023-07-22T00:41:01;14.90;99.90
22629;DHT22;11481;53.694;9.910;2023-07-22T00:43:31;14.70;99.90
22629;DHT22;11481;53.694;9.910;2023-07-22T00:45:58;14.70;99.90
22629;DHT22;11481;53.694;9.910;2023-07-22T00:48:25;14.60;99.90
22629;DHT22;11481;53.694;9.910;2023-07-22T00:50:55;14.50;99.90
22629;DHT22;11481;53.694;9.910;2023-07-22T00:53:21;14.50;99.90
22629;DHT22;11481;53.694;9.910;2023-07-22T00:55:48;14.50;99.90
22629;DHT22;11481;53.694;9.910;2023-07-22T00:58:15;14.60;99.90
22629;DHT22;11481;53.694;9.910;2023-07-22T01:00:42;14.50;99.90
22629;DHT22;11481;53.694;9.910;2023-07-22T01:03:09;14.40;99.90
22629;DHT22;11481;53.694;9.910;2023-07-22T01:05:36;14.40;99.90
22629;DHT22;11481;53.694;9.910;2023-07-22T01:08:03;14.40;99.90
22629;DHT22;11481;53.694;9.910;2023-07-22T01:10:30;14.30;99.90
22629;DHT22;11481;53.694;9.910;2023-07-22T01:12:57;14.40;99.90
22629;DHT22;11481;53.694;9.910;2023-07-22T01:15:25;14.40;99.90
22629;DHT22;11481;53.694;9.910;2023-07-22T01:17:52;14.40;99.90
22629;DHT22;11481;53.694;9.910;2023-07-22T01:20:19;14.40;99.90
22629;DHT22;11481;53.694;9.910;2023-07-22T01:22:53;14.40;99.90
22629;DHT22;11481;53.694;9.910;2023-07-22T01:25:21;14.50;99.90
22629;DHT22;11481;53.694;9.910;2023-07-22T01:27:52;14.30;99.90
22629;DHT22;11481;53.694;9.910;2023-07-22T01:30:19;14.50;99.90
22629;DHT22;11481;53.694;9.910;2023-07-22T01:32:46;14.40;99.90
22629;DHT22;11481;53.694;9.910;2023-07-22T01:35:13;14.50;99.90
22629;DHT22;11481;53.694;9.910;2023-07-22T01:37:40;14.50;99.90
22629;DHT22;11481;53.694;9.910;2023-07-22T01:40:07;14.60;99.90
22629;DHT22;11481;53.694;9.910;2023-07-22T01:42:39;14.60;99.90
22629;DHT22;11481;53.694;9.910;2023-07-22T01:45:07;14.60;99.90
22629;DHT22;11481;53.694;9.910;2023-07-22T01:47:38;14.50;99.90
22629;DHT22;11481;53.694;9.910;2023-07-22T01:50:06;14.50;99.90
22629;DHT22;11481;53.694;9.910;2023-07-22T01:52:33;14.60;99.90
22629;DHT22;11481;53.694;9.910;2023-07-22T01:54:59;14.40;99.90
22629;DHT22;11481;53.694;9.910;2023-07-22T01:57:26;14.40;99.90
22629;DHT22;11481;53.694;9.910;2023-07-22T01:59:52;14.40;99.90
22629;DHT22;11481;53.694;9.910;2023-07-22T02:02:19;14.40;99.90
22629;DHT22;11481;53.694;9.910;2023-07-22T02:04:46;14.40;99.90
22629;DHT22;11481;53.694;9.910;2023-07-22T02:07:13;14.30;99.90
22629;DHT22;11481;53.694;9.910;2023-07-22T02:09:40;14.20;99.90
22629;DHT22;11481;53.694;9.910;2023-07-22T02:12:07;14.10;99.90
22629;DHT22;11481;53.694;9.910;2023-07-22T02:14:34;14.10;99.90
22629;DHT22;11481;53.694;9.910;2023-07-22T02:17:01;14.20;99.90
22629;DHT22;11481;53.694;9.910;2023-07-22T02:19:28;14.10;99.90
22629;DHT22;11481;53.694;9.910;2023-07-22T02:21:55;14.10;99.90
22629;DHT22;11481;53.694;9.910;2023-07-22T02:24:21;14.00;99.90
22629;DHT22;11481;53.694;9.910;2023-07-22T02:26:49;14.00;99.90
22629;DHT22;11481;53.694;9.910;2023-07-22T02:29:16;14.00;99.90
22629;DHT22;11481;53.694;9.910;2023-07-22T02:31:44;14.00;99.90
22629;DHT22;11481;53.694;9.910;2023-07-22T02:34:11;14.20;99.90
22629;DHT22;11481;53.694;9.910;2023-07-22T02:36:38;14.00;99.90
22629;DHT22;11481;53.694;9.910;2023-07-22T02:39:04;14.10;99.90
22629;DHT22;11481;53.694;9.910;2023-07-22T02:41:31;14.00;99.90
22629;DHT22;11481;53.694;9.910;2023-07-22T02:43:57;13.90;99.90
22629;DHT22;11481;53.694;9.910;2023-07-22T02:46:24;13.80;99.90
22629;DHT22;11481;53.694;9.910;2023-07-22T02:48:52;13.80;99.90
22629;DHT22;11481;53.694;9.910;2023-07-22T02:51:18;13.70;99.90
22629;DHT22;11481;53.694;9.910;2023-07-22T02:53:45;13.80;99.90
22629;DHT22;11481;53.694;9.910;2023-07-22T02:56:13;13.70;99.90
22629;DHT22;11481;53.694;9.910;2023-07-22T02:58:39;13.60;99.90
22629;DHT22;11481;53.694;9.910;2023-07-22T03:01:08;13.70;99.90
22629;DHT22;11481;53.694;9.910;2023-07-22T03:03:37;13.70;99.90
22629;DHT22;11481;53.694;9.910;2023-07-22T03:06:03;13.70;99.90
22629;DHT22;11481;53.694;9.910;2023-07-22T03:08:31;13.60;99.90
22629;DHT22;11481;53.694;9.910;2023-07-22T03:10:57;13.60;99.90
22629;DHT22;11481;53.694;9.910;2023-07-22T03:13:24;13.70;99.90
22629;DHT22;11481;53.694;9.910;2023-07-22T03:15:50;13.70;99.90
22629;DHT22;11481;53.694;9.910;2023-07-22T03:18:17;13.60;99.90
22629;DHT22;11481;53.694;9.910;2023-07-22T03:20:44;13.60;99.90
22629;DHT22;11481;53.694;9.910;2023-07-22T03:23:12;13.60;99.90
22629;DHT22;11481;53.694;9.910;2023-07-22T03:25:38;13.60;99.90
22629;DHT22;11481;53.694;9.910;2023-07-22T03:28:06;13.50;99.90
22629;DHT22;11481;53.694;9.910;2023-07-22T03:30:33;13.60;99.90
22629;DHT22;11481;53.694;9.910;2023-07-22T03:33:01;13.60;99.90
22629;DHT22;11481;53.694;9.910;2023-07-22T03:35:27;13.50;99.90
22629;DHT22;11481;53.694;9.910;2023-07-22T03:37:55;13.50;99.90
22629;DHT22;11481;53.694;9.910;2023-07-22T03:40:21;13.60;99.90
22629;DHT22;11481;53.694;9.910;2023-07-22T03:42:54;13.60;99.90
22629;DHT22;11481;53.694;9.910;2023-07-22T03:45:22;13.60;99.90
22629;DHT22;11481;53.694;9.910;2023-07-22T03:47:57;13.50;99.90
22629;DHT22;11481;53.694;9.910;2023-07-22T03:50:25;13.60;99.90
22629;DHT22;11481;53.694;9.910;2023-07-22T03:52:52;13.60;99.90
22629;DHT22;11481;53.694;9.910;2023-07-22T03:55:18;13.60;99.90
22629;DHT22;11481;53.694;9.910;2023-07-22T03:57:48;13.60;99.90
22629;DHT22;11481;53.694;9.910;2023-07-22T04:00:15;13.60;99.90
22629;DHT22;11481;53.694;9.910;2023-07-22T04:02:42;13.60;99.90
22629;DHT22;11481;53.694;9.910;2023-07-22T04:05:09;13.60;99.90
22629;DHT22;11481;53.694;9.910;2023-07-22T04:07:35;13.60;99.90
22629;DHT22;11481;53.694;9.910;2023-07-22T04:10:02;13.60;99.90
22629;DHT22;11481;53.694;9.910;2023-07-22T04:12:29;13.60;99.90
22629;DHT22;11481;53.694;9.910;2023-07-22T04:14:56;13.60;99.90
22629;DHT22;11481;53.694;9.910;2023-07-22T04:17:23;13.60;99.90
22629;DHT22;11481;53.694;9.910;2023-07-22T04:19:51;13.60;99.90
22629;DHT22;11481;53.694;9.910;2023-07-22T04:22:20;13.50;99.90
22629;DHT22;11481;53.694;9.910;2023-07-22T04:24:46;13.40;99.90
22629;DHT22;11481;53.694;9.910;2023-07-22T04:27:17;13.50;99.90
22629;DHT22;11481;53.694;9.910;2023-07-22T04:29:43;13.40;99.90
22629;DHT22;11481;53.694;9.910;2023-07-22T04:32:10;13.50;99.90
22629;DHT22;11481;53.694;9.910;2023-07-22T04:34:37;13.50;99.90
22629;DHT22;11481;53.694;9.910;2023-07-22T04:37:04;13.50;99.90
22629;DHT22;11481;53.694;9.910;2023-07-22T04:39:30;13.50;99.90
22629;DHT22;11481;53.694;9.910;2023-07-22T04:41:57;13.60;99.90
22629;DHT22;11481;53.694;9.910;2023-07-22T04:44:24;13.60;99.90
22629;DHT22;11481;53.694;9.910;2023-07-22T04:46:51;13.60;99.90
22629;DHT22;11481;53.694;9.910;2023-07-22T04:49:18;13.50;99.90
22629;DHT22;11481;53.694;9.910;2023-07-22T04:51:45;13.50;99.90
22629;DHT22;11481;53.694;9.910;2023-07-22T04:54:12;13.50;99.90
22629;DHT22;11481;53.694;9.910;2023-07-22T04:56:40;13.60;99.90
22629;DHT22;11481;53.694;9.910;2023-07-22T04:59:07;13.70;99.90
22629;DHT22;11481;53.694;9.910;2023-07-22T05:01:34;13.60;99.90
22629;DHT22;11481;53.694;9.910;2023-07-22T05:04:00;13.70;99.90
22629;DHT22;11481;53.694;9.910;2023-07-22T05:06:28;13.70;99.90
22629;DHT22;11481;53.694;9.910;2023-07-22T05:08:55;13.60;99.90
22629;DHT22;11481;53.694;9.910;2023-07-22T05:11:22;13.70;99.90
22629;DHT22;11481;53.694;9.910;2023-07-22T05:13:49;13.80;99.90
22629;DHT22;11481;53.694;9.910;2023-07-22T05:16:17;13.80;99.90
22629;DHT22;11481;53.694;9.910;2023-07-22T05:18:44;13.90;99.90
22629;DHT22;11481;53.694;9.910;2023-07-22T05:21:11;13.90;99.90
22629;DHT22;11481;53.694;9.910;2023-07-22T05:23:38;13.90;99.90
22629;DHT22;11481;53.694;9.910;2023-07-22T05:26:05;13.90;99.90
22629;DHT22;11481;53.694;9.910;2023-07-22T05:28:31;13.80;99.90
22629;DHT22;11481;53.694;9.910;2023-07-22T05:30:58;13.90;99.90
22629;DHT22;11481;53.694;9.910;2023-07-22T05:33:25;14.00;99.90
22629;DHT22;11481;53.694;9.910;2023-07-22T05:35:51;14.10;99.90
22629;DHT22;11481;53.694;9.910;2023-07-22T05:38:18;14.00;99.90
22629;DHT22;11481;53.694;9.910;2023-07-22T05:40:45;14.00;99.90
22629;DHT22;11481;53.694;9.910;2023-07-22T05:43:12;14.00;99.90
22629;DHT22;11481;53.694;9.910;2023-07-22T05:45:38;14.00;99.90
22629;DHT22;11481;53.694;9.910;2023-07-22T05:48:05;14.20;99.90
22629;DHT22;11481;53.694;9.910;2023-07-22T05:50:35;14.30;99.90
22629;DHT22;11481;53.694;9.910;2023-07-22T05:53:01;14.40;99.90
22629;DHT22;11481;53.694;9.910;2023-07-22T05:55:30;14.40;99.90
22629;DHT22;11481;53.694;9.910;2023-07-22T05:57:57;14.50;99.90
22629;DHT22;11481;53.694;9.910;2023-07-22T06:00:25;14.50;99.90
22629;DHT22;11481;53.694;9.910;2023-07-22T06:02:51;14.50;99.90
22629;DHT22;11481;53.694;9.910;2023-07-22T06:05:18;14.50;99.90
22629;DHT22;11481;53.694;9.910;2023-07-22T06:07:45;14.60;99.90
22629;DHT22;11481;53.694;9.910;2023-07-22T06:10:12;14.60;99.90
22629;DHT22;11481;53.694;9.910;2023-07-22T06:12:38;14.60;99.90
22629;DHT22;11481;53.694;9.910;2023-07-22T06:15:06;14.70;99.90
22629;DHT22;11481;53.694;9.910;2023-07-22T06:17:33;14.90;99.90
22629;DHT22;11481;53.694;9.910;2023-07-22T06:20:00;14.90;99.90
22629;DHT22;11481;53.694;9.910;2023-07-22T06:22:27;15.00;99.90
22629;DHT22;11481;53.694;9.910;2023-07-22T06:24:53;15.00;99.90
22629;DHT22;11481;53.694;9.910;2023-07-22T06:27:20;15.10;99.90
22629;DHT22;11481;53.694;9.910;2023-07-22T06:29:47;15.20;99.90
22629;DHT22;11481;53.694;9.910;2023-07-22T06:32:14;15.10;99.90
22629;DHT22;11481;53.694;9.910;2023-07-22T06:34:40;15.20;99.90
22629;DHT22;11481;53.694;9.910;2023-07-22T06:37:07;15.30;99.90
22629;DHT22;11481;53.694;9.910;2023-07-22T06:39:34;15.20;99.90
22629;DHT22;11481;53.694;9.910;2023-07-22T06:42:00;15.30;99.90
22629;DHT22;11481;53.694;9.910;2023-07-22T06:44:27;15.40;99.90
22629;DHT22;11481;53.694;9.910;2023-07-22T06:46:56;15.40;99.90
22629;DHT22;11481;53.694;9.910;2023-07-22T06:49:24;15.50;99.90
22629;DHT22;11481;53.694;9.910;2023-07-22T06:51:51;15.70;99.90
22629;DHT22;11481;53.694;9.910;2023-07-22T06:54:18;15.70;99.90
22629;DHT22;11481;53.694;9.910;2023-07-22T06:56:45;15.80;99.90
22629;DHT22;11481;53.694;9.910;2023-07-22T06:59:11;15.80;99.90
22629;DHT22;11481;53.694;9.910;2023-07-22T07:01:38;15.80;99.90
22629;DHT22;11481;53.694;9.910;2023-07-22T07:04:05;15.90;99.90
22629;DHT22;11481;53.694;9.910;2023-07-22T07:06:31;15.90;99.90
22629;DHT22;11481;53.694;9.910;2023-07-22T07:09:00;15.80;99.90
22629;DHT22;11481;53.694;9.910;2023-07-22T07:11:29;15.90;99.90
22629;DHT22;11481;53.694;9.910;2023-07-22T07:13:56;15.90;99.90
22629;DHT22;11481;53.694;9.910;2023-07-22T07:16:25;16.10;99.90
22629;DHT22;11481;53.694;9.910;2023-07-22T07:18:53;16.10;99.90
22629;DHT22;11481;53.694;9.910;2023-07-22T07:21:22;16.20;99.90
22629;DHT22;11481;53.694;9.910;2023-07-22T07:23:50;16.30;99.90
22629;DHT22;11481;53.694;9.910;2023-07-22T07:26:17;16.30;99.90
22629;DHT22;11481;53.694;9.910;2023-07-22T07:28:46;16.50;99.90
22629;DHT22;11481;53.694;9.910;2023-07-22T07:31:13;16.50;99.90
22629;DHT22;11481;53.694;9.910;2023-07-22T07:33:39;16.50;99.90
22629;DHT22;11481;53.694;9.910;2023-07-22T07:36:06;16.60;99.90
22629;DHT22;11481;53.694;9.910;2023-07-22T07:38:35;16.50;99.90
22629;DHT22;11481;53.694;9.910;2023-07-22T07:41:04;16.70;99.90
22629;DHT22;11481;53.694;9.910;2023-07-22T07:43:31;16.80;99.90
22629;DHT22;11481;53.694;9.910;2023-07-22T07:46:25;16.80;99.90
22629;DHT22;11481;53.694;9.910;2023-07-22T07:48:58;16.80;99.90
22629;DHT22;11481;53.694;9.910;2023-07-22T07:51:30;16.90;99.90
22629;DHT22;11481;53.694;9.910;2023-07-22T07:53:59;17.00;99.90
22629;DHT22;11481;53.694;9.910;2023-07-22T07:56:26;17.20;99.90
22629;DHT22;11481;53.694;9.910;2023-07-22T07:58:54;17.30;99.90
22629;DHT22;11481;53.694;9.910;2023-07-22T08:01:21;17.20;99.90
22629;DHT22;11481;53.694;9.910;2023-07-22T08:03:48;17.20;99.90
22629;DHT22;11481;53.694;9.910;2023-07-22T08:06:16;17.10;99.90
22629;DHT22;11481;53.694;9.910;2023-07-22T08:08:48;17.10;99.90
22629;DHT22;11481;53.694;9.910;2023-07-22T08:11:15;17.30;99.90
22629;DHT22;11481;53.694;9.910;2023-07-22T08:13:43;17.10;99.90
22629;DHT22;11481;53.694;9.910;2023-07-22T08:16:12;17.10;99.90
22629;DHT22;11481;53.694;9.910;2023-07-22T08:18:39;17.30;99.90
22629;DHT22;11481;53.694;9.910;2023-07-22T08:21:07;17.20;99.90
22629;DHT22;11481;53.694;9.910;2023-07-22T08:23:35;17.10;99.90
22629;DHT22;11481;53.694;9.910;2023-07-22T08:26:03;17.00;99.90
22629;DHT22;11481;53.694;9.910;2023-07-22T08:28:32;17.00;99.90
22629;DHT22;11481;53.694;9.910;2023-07-22T08:30:59;17.30;99.90
22629;DHT22;11481;53.694;9.910;2023-07-22T08:33:27;17.60;99.90
22629;DHT22;11481;53.694;9.910;2023-07-22T08:36:08;17.50;99.90
22629;DHT22;11481;53.694;9.910;2023-07-22T08:38:34;17.30;99.90
22629;DHT22;11481;53.694;9.910;2023-07-22T08:41:01;17.50;99.90
22629;DHT22;11481;53.694;9.910;2023-07-22T08:43:29;17.70;99.90
22629;DHT22;11481;53.694;9.910;2023-07-22T08:45:59;17.90;99.90
22629;DHT22;11481;53.694;9.910;2023-07-22T08:48:30;18.00;99.90
22629;DHT22;11481;53.694;9.910;2023-07-22T08:51:18;18.10;99.90
22629;DHT22;11481;53.694;9.910;2023-07-22T08:53:46;18.30;99.90
22629;DHT22;11481;53.694;9.910;2023-07-22T08:56:24;18.10;99.90
22629;DHT22;11481;53.694;9.910;2023-07-22T08:58:53;17.90;99.90
22629;DHT22;11481;53.694;9.910;2023-07-22T09:01:20;17.80;99.90
22629;DHT22;11481;53.694;9.910;2023-07-22T09:03:48;17.90;99.90
22629;DHT22;11481;53.694;9.910;2023-07-22T09:06:21;18.10;99.90
22629;DHT22;11481;53.694;9.910;2023-07-22T09:08:48;18.00;99.90
22629;DHT22;11481;53.694;9.910;2023-07-22T09:11:19;18.00;99.90
22629;DHT22;11481;53.694;9.910;2023-07-22T09:13:46;18.00;99.90
22629;DHT22;11481;53.694;9.910;2023-07-22T09:16:13;18.10;99.90
22629;DHT22;11481;53.694;9.910;2023-07-22T09:18:41;18.10;99.90
22629;DHT22;11481;53.694;9.910;2023-07-22T09:21:10;18.30;99.90
22629;DHT22;11481;53.694;9.910;2023-07-22T09:23:38;18.50;99.90
22629;DHT22;11481;53.694;9.910;2023-07-22T09:26:16;18.50;99.90
22629;DHT22;11481;53.694;9.910;2023-07-22T09:28:57;18.60;99.90
22629;DHT22;11481;53.694;9.910;2023-07-22T09:31:25;18.80;99.90
22629;DHT22;11481;53.694;9.910;2023-07-22T09:33:52;18.60;99.90
22629;DHT22;11481;53.694;9.910;2023-07-22T09:36:22;18.30;99.90
22629;DHT22;11481;53.694;9.910;2023-07-22T09:39:02;18.40;99.90
22629;DHT22;11481;53.694;9.910;2023-07-22T09:41:30;18.30;99.90
22629;DHT22;11481;53.694;9.910;2023-07-22T09:43:57;18.30;99.90
22629;DHT22;11481;53.694;9.910;2023-07-22T09:46:31;18.40;99.90
22629;DHT22;11481;53.694;9.910;2023-07-22T09:49:06;18.70;99.90
22629;DHT22;11481;53.694;9.910;2023-07-22T09:51:39;18.80;99.90
22629;DHT22;11481;53.694;9.910;2023-07-22T09:54:26;18.90;99.90
22629;DHT22;11481;53.694;9.910;2023-07-22T09:56:55;19.10;99.90
22629;DHT22;11481;53.694;9.910;2023-07-22T09:59:22;19.00;99.90
22629;DHT22;11481;53.694;9.910;2023-07-22T10:01:50;19.00;99.90
22629;DHT22;11481;53.694;9.910;2023-07-22T10:04:19;19.10;99.90
22629;DHT22;11481;53.694;9.910;2023-07-22T10:06:50;19.00;99.90
22629;DHT22;11481;53.694;9.910;2023-07-22T10:09:18;19.10;99.90
22629;DHT22;11481;53.694;9.910;2023-07-22T10:11:47;19.00;99.90
22629;DHT22;11481;53.694;9.910;2023-07-22T10:14:14;18.90;99.90
22629;DHT22;11481;53.694;9.910;2023-07-22T10:16:42;19.00;99.90
22629;DHT22;11481;53.694;9.910;2023-07-22T10:19:09;18.90;99.90
22629;DHT22;11481;53.694;9.910;2023-07-22T10:21:36;18.90;99.90
22629;DHT22;11481;53.694;9.910;2023-07-22T10:24:04;19.00;99.90
22629;DHT22;11481;53.694;9.910;2023-07-22T10:26:32;19.20;99.90
22629;DHT22;11481;53.694;9.910;2023-07-22T10:29:13;19.10;99.90
22629;DHT22;11481;53.694;9.910;2023-07-22T10:31:40;19.20;99.90
22629;DHT22;11481;53.694;9.910;2023-07-22T10:34:07;19.40;99.90
22629;DHT22;11481;53.694;9.910;2023-07-22T10:36:35;19.50;99.90
22629;DHT22;11481;53.694;9.910;2023-07-22T10:39:03;19.50;99.90
22629;DHT22;11481;53.694;9.910;2023-07-22T10:41:32;19.70;99.90
22629;DHT22;11481;53.694;9.910;2023-07-22T10:43:59;19.80;99.90
22629;DHT22;11481;53.694;9.910;2023-07-22T10:46:37;19.90;99.90
22629;DHT22;11481;53.694;9.910;2023-07-22T10:49:13;20.00;99.90
22629;DHT22;11481;53.694;9.910;2023-07-22T10:51:40;20.30;99.90
22629;DHT22;11481;53.694;9.910;2023-07-22T10:54:11;20.20;99.90
22629;DHT22;11481;53.694;9.910;2023-07-22T10:56:42;20.10;99.90
22629;DHT22;11481;53.694;9.910;2023-07-22T10:59:12;20.00;99.90
22629;DHT22;11481;53.694;9.910;2023-07-22T11:01:40;20.00;99.90
22629;DHT22;11481;53.694;9.910;2023-07-22T11:11:55;20.20;99.90
22629;DHT22;11481;53.694;9.910;2023-07-22T11:14:26;20.30;99.90
22629;DHT22;11481;53.694;9.910;2023-07-22T11:16:53;20.20;99.90
22629;DHT22;11481;53.694;9.910;2023-07-22T11:19:22;20.40;99.90
22629;DHT22;11481;53.694;9.910;2023-07-22T11:21:51;20.60;99.90
22629;DHT22;11481;53.694;9.910;2023-07-22T11:24:19;20.40;99.90
22629;DHT22;11481;53.694;9.910;2023-07-22T11:26:47;20.30;99.90
22629;DHT22;11481;53.694;9.910;2023-07-22T11:29:15;20.30;99.90
22629;DHT22;11481;53.694;9.910;2023-07-22T11:31:44;20.30;99.90
22629;DHT22;11481;53.694;9.910;2023-07-22T11:34:13;20.30;99.90
22629;DHT22;11481;53.694;9.910;2023-07-22T11:36:41;19.90;99.90
22629;DHT22;11481;53.694;9.910;2023-07-22T11:39:12;19.90;99.90
22629;DHT22;11481;53.694;9.910;2023-07-22T11:41:40;20.00;99.90
22629;DHT22;11481;53.694;9.910;2023-07-22T11:44:09;20.20;99.90
22629;DHT22;11481;53.694;9.910;2023-07-22T11:47:07;20.30;99.90
22629;DHT22;11481;53.694;9.910;2023-07-22T11:49:37;20.40;99.90
22629;DHT22;11481;53.694;9.910;2023-07-22T11:54:33;20.60;99.90
22629;DHT22;11481;53.694;9.910;2023-07-22T11:57:10;20.60;99.90
22629;DHT22;11481;53.694;9.910;2023-07-22T11:59:39;20.70;99.90
22629;DHT22;11481;53.694;9.910;2023-07-22T12:02:06;20.70;99.90
22629;DHT22;11481;53.694;9.910;2023-07-22T12:04:33;20.70;99.90
22629;DHT22;11481;53.694;9.910;2023-07-22T12:07:03;20.70;99.90
22629;DHT22;11481;53.694;9.910;2023-07-22T12:09:33;20.50;99.90
22629;DHT22;11481;53.694;9.910;2023-07-22T12:12:00;20.10;99.90
22629;DHT22;11481;53.694;9.910;2023-07-22T12:14:34;20.00;99.90
22629;DHT22;11481;53.694;9.910;2023-07-22T12:17:01;19.80;99.90
22629;DHT22;11481;53.694;9.910;2023-07-22T12:19:29;20.30;99.90
22629;DHT22;11481;53.694;9.910;2023-07-22T12:21:57;19.80;99.90
22629;DHT22;11481;53.694;9.910;2023-07-22T12:24:23;19.80;99.90
22629;DHT22;11481;53.694;9.910;2023-07-22T12:26:50;19.70;99.90
22629;DHT22;11481;53.694;9.910;2023-07-22T12:29:17;19.70;99.90
22629;DHT22;11481;53.694;9.910;2023-07-22T12:31:44;19.50;99.90
22629;DHT22;11481;53.694;9.910;2023-07-22T12:34:11;19.40;99.90
22629;DHT22;11481;53.694;9.910;2023-07-22T12:36:37;19.10;99.90
22629;DHT22;11481;53.694;9.910;2023-07-22T12:39:04;19.10;99.90
22629;DHT22;11481;53.694;9.910;2023-07-22T12:41:31;19.00;99.90
22629;DHT22;11481;53.694;9.910;2023-07-22T12:43:58;18.70;99.90
22629;DHT22;11481;53.694;9.910;2023-07-22T12:46:24;18.60;99.90
22629;DHT22;11481;53.694;9.910;2023-07-22T12:48:51;18.20;99.90
22629;DHT22;11481;53.694;9.910;2023-07-22T12:51:18;18.00;99.90
22629;DHT22;11481;53.694;9.910;2023-07-22T12:53:44;17.90;99.90
22629;DHT22;11481;53.694;9.910;2023-07-22T12:56:11;17.80;99.90
22629;DHT22;11481;53.694;9.910;2023-07-22T12:58:38;17.90;99.90
22629;DHT22;11481;53.694;9.910;2023-07-22T13:01:04;17.90;99.90
22629;DHT22;11481;53.694;9.910;2023-07-22T13:03:31;17.90;99.90
22629;DHT22;11481;53.694;9.910;2023-07-22T13:05:58;18.00;99.90
22629;DHT22;11481;53.694;9.910;2023-07-22T13:08:24;17.90;99.90
22629;DHT22;11481;53.694;9.910;2023-07-22T13:10:51;17.90;99.90
22629;DHT22;11481;53.694;9.910;2023-07-22T13:13:18;17.70;99.90
22629;DHT22;11481;53.694;9.910;2023-07-22T13:15:44;17.70;99.90
22629;DHT22;11481;53.694;9.910;2023-07-22T13:18:11;17.90;99.90
22629;DHT22;11481;53.694;9.910;2023-07-22T13:20:40;18.10;99.90
22629;DHT22;11481;53.694;9.910;2023-07-22T13:23:07;18.30;99.90
22629;DHT22;11481;53.694;9.910;2023-07-22T13:25:33;18.30;99.90
22629;DHT22;11481;53.694;9.910;2023-07-22T13:28:00;18.40;99.90
22629;DHT22;11481;53.694;9.910;2023-07-22T13:30:27;18.50;99.90
22629;DHT22;11481;53.694;9.910;2023-07-22T13:32:53;18.60;99.90
22629;DHT22;11481;53.694;9.910;2023-07-22T13:35:20;18.70;99.90
22629;DHT22;11481;53.694;9.910;2023-07-22T13:37:47;18.60;99.90
22629;DHT22;11481;53.694;9.910;2023-07-22T13:40:14;18.40;99.90
22629;DHT22;11481;53.694;9.910;2023-07-22T13:42:40;18.30;99.90
22629;DHT22;11481;53.694;9.910;2023-07-22T13:45:07;18.40;99.90
22629;DHT22;11481;53.694;9.910;2023-07-22T13:47:34;18.40;99.90
22629;DHT22;11481;53.694;9.910;2023-07-22T13:50:01;18.40;99.90
22629;DHT22;11481;53.694;9.910;2023-07-22T13:52:28;18.40;99.90
22629;DHT22;11481;53.694;9.910;2023-07-22T13:54:54;18.20;99.90
22629;DHT22;11481;53.694;9.910;2023-07-22T13:57:21;18.20;99.90
22629;DHT22;11481;53.694;9.910;2023-07-22T13:59:48;18.10;99.90
22629;DHT22;11481;53.694;9.910;2023-07-22T14:02:14;18.10;99.90
22629;DHT22;11481;53.694;9.910;2023-07-22T14:04:41;18.00;99.90
22629;DHT22;11481;53.694;9.910;2023-07-22T14:07:08;17.90;99.90
22629;DHT22;11481;53.694;9.910;2023-07-22T14:09:34;18.00;99.90
22629;DHT22;11481;53.694;9.910;2023-07-22T14:12:01;18.10;99.90
22629;DHT22;11481;53.694;9.910;2023-07-22T14:14:28;18.20;99.90
22629;DHT22;11481;53.694;9.910;2023-07-22T14:16:56;18.10;99.90
22629;DHT22;11481;53.694;9.910;2023-07-22T14:19:24;18.20;99.90
22629;DHT22;11481;53.694;9.910;2023-07-22T14:21:51;18.10;99.90
22629;DHT22;11481;53.694;9.910;2023-07-22T14:24:17;17.80;99.90
22629;DHT22;11481;53.694;9.910;2023-07-22T14:26:44;17.80;99.90
22629;DHT22;11481;53.694;9.910;2023-07-22T14:29:11;17.70;99.90
22629;DHT22;11481;53.694;9.910;2023-07-22T14:31:37;17.80;99.90
22629;DHT22;11481;53.694;9.910;2023-07-22T14:34:04;17.80;99.90
22629;DHT22;11481;53.694;9.910;2023-07-22T14:36:31;17.90;99.90
22629;DHT22;11481;53.694;9.910;2023-07-22T14:38:57;18.00;99.90
22629;DHT22;11481;53.694;9.910;2023-07-22T14:41:24;17.90;99.90
22629;DHT22;11481;53.694;9.910;2023-07-22T14:43:51;18.00;99.90
22629;DHT22;11481;53.694;9.910;2023-07-22T14:46:18;18.10;99.90
22629;DHT22;11481;53.694;9.910;2023-07-22T14:48:45;18.20;99.90
22629;DHT22;11481;53.694;9.910;2023-07-22T14:51:12;18.20;99.90
22629;DHT22;11481;53.694;9.910;2023-07-22T14:53:39;18.20;99.90
22629;DHT22;11481;53.694;9.910;2023-07-22T14:56:06;18.10;99.90
22629;DHT22;11481;53.694;9.910;2023-07-22T14:58:33;18.10;99.90
22629;DHT22;11481;53.694;9.910;2023-07-22T15:01:00;18.10;99.90
22629;DHT22;11481;53.694;9.910;2023-07-22T15:03:29;18.10;99.90
22629;DHT22;11481;53.694;9.910;2023-07-22T15:05:56;18.10;99.90
22629;DHT22;11481;53.694;9.910;2023-07-22T15:08:23;18.10;99.90
22629;DHT22;11481;53.694;9.910;2023-07-22T15:10:49;18.20;99.90
22629;DHT22;11481;53.694;9.910;2023-07-22T15:13:16;18.30;99.90
22629;DHT22;11481;53.694;9.910;2023-07-22T15:15:43;18.20;99.90
22629;DHT22;11481;53.694;9.910;2023-07-22T15:18:09;18.40;99.90
22629;DHT22;11481;53.694;9.910;2023-07-22T15:20:36;18.40;99.90
22629;DHT22;11481;53.694;9.910;2023-07-22T15:23:03;18.30;99.90
22629;DHT22;11481;53.694;9.910;2023-07-22T15:25:29;18.40;99.90
22629;DHT22;11481;53.694;9.910;2023-07-22T15:27:56;18.40;99.90
22629;DHT22;11481;53.694;9.910;2023-07-22T15:30:23;18.40;99.90
22629;DHT22;11481;53.694;9.910;2023-07-22T15:32:49;18.30;99.90
22629;DHT22;11481;53.694;9.910;2023-07-22T15:35:18;18.30;99.90
22629;DHT22;11481;53.694;9.910;2023-07-22T15:37:45;18.20;99.90
22629;DHT22;11481;53.694;9.910;2023-07-22T15:40:12;18.20;99.90
22629;DHT22;11481;53.694;9.910;2023-07-22T15:42:39;18.30;99.90
22629;DHT22;11481;53.694;9.910;2023-07-22T15:45:06;18.30;99.90